BAW9026 EBBR-EDDF
Flight info
| Callsign | BAW9026 |
|---|---|
| Flight time | 0h 52m |
| Altitude | 23000 |
| Route | SPI4G SPI T180 NIVNU T847 IMCOM IMCOM2C |
| Aircraft | A20N/M-SDGHIJ1LRWXY/SB1 |
Departure
| Time | 2026-04-15 12:34 |
|---|---|
| Airport | Brussels Airport (EBBR) |
Arrival
| Time | 2026-04-15 13:27 |
|---|---|
| Airport | Frankfurt Main Airport (EDDF) |
| Time | Latitude | Longitude | Altitude | Speed | Heading |
|---|---|---|---|---|---|
| 2026-04-15 11:09 | 50.90263 | 4.48093 | 125 ft | 0 kts | 157° |
| 2026-04-15 12:24 | 50.90285 | 4.48077 | 122 ft | 4 kts | 155° |
| 2026-04-15 12:25 | 50.90309 | 4.48059 | 119 ft | 3 kts | 151° |
| 2026-04-15 12:25 | 50.90332 | 4.48036 | 119 ft | 4 kts | 142° |
| 2026-04-15 12:25 | 50.90350 | 4.48010 | 119 ft | 2 kts | 126° |
| 2026-04-15 12:25 | 50.90353 | 4.48003 | 118 ft | 0 kts | 126° |
| 2026-04-15 12:29 | 50.90350 | 4.48029 | 118 ft | 6 kts | 93° |
| 2026-04-15 12:29 | 50.90372 | 4.48130 | 122 ft | 13 kts | 64° |
| 2026-04-15 12:29 | 50.90416 | 4.48276 | 120 ft | 16 kts | 64° |
| 2026-04-15 12:30 | 50.90472 | 4.48466 | 117 ft | 22 kts | 65° |
| 2026-04-15 12:30 | 50.90559 | 4.48599 | 113 ft | 7 kts | 17° |
| 2026-04-15 12:30 | 50.90561 | 4.48599 | 113 ft | 1 kts | 17° |
| 2026-04-15 12:31 | 50.90567 | 4.48604 | 114 ft | 4 kts | 25° |
| 2026-04-15 12:31 | 50.90608 | 4.48678 | 113 ft | 13 kts | 57° |
| 2026-04-15 12:31 | 50.90656 | 4.48834 | 111 ft | 17 kts | 67° |
| 2026-04-15 12:31 | 50.90702 | 4.49013 | 111 ft | 19 kts | 68° |
| 2026-04-15 12:32 | 50.90762 | 4.49216 | 112 ft | 21 kts | 64° |
| 2026-04-15 12:32 | 50.90826 | 4.49440 | 112 ft | 21 kts | 67° |
| 2026-04-15 12:32 | 50.90899 | 4.49655 | 111 ft | 22 kts | 46° |
| 2026-04-15 12:32 | 50.90962 | 4.49656 | 107 ft | 0 kts | 315° |
| 2026-04-15 12:33 | 50.90969 | 4.49643 | 108 ft | 10 kts | 307° |
| 2026-04-15 12:33 | 50.90989 | 4.49469 | 112 ft | 20 kts | 266° |
| 2026-04-15 12:33 | 50.90945 | 4.49217 | 112 ft | 29 kts | 245° |
| 2026-04-15 12:34 | 50.90764 | 4.48594 | 114 ft | 97 kts | 245° |
| 2026-04-15 12:34 | 50.90395 | 4.47361 | 120 ft | 146 kts | 245° |
| 2026-04-15 12:34 | 50.90010 | 4.45720 | 426 ft | 162 kts | 248° |
| 2026-04-15 12:34 | 50.89727 | 4.44019 | 1050 ft | 161 kts | 250° |
| 2026-04-15 12:35 | 50.89376 | 4.42296 | 1702 ft | 168 kts | 246° |
| 2026-04-15 12:35 | 50.89004 | 4.40594 | 2535 ft | 157 kts | 246° |
| 2026-04-15 12:35 | 50.88633 | 4.38921 | 3169 ft | 168 kts | 239° |
| 2026-04-15 12:35 | 50.87787 | 4.37624 | 3549 ft | 178 kts | 202° |
| 2026-04-15 12:36 | 50.86506 | 4.37437 | 3866 ft | 202 kts | 167° |
| 2026-04-15 12:36 | 50.85238 | 4.38671 | 4205 ft | 233 kts | 133° |
| 2026-04-15 12:36 | 50.84456 | 4.41095 | 4722 ft | 262 kts | 109° |
| 2026-04-15 12:36 | 50.84041 | 4.43950 | 5472 ft | 275 kts | 104° |
| 2026-04-15 12:37 | 50.83636 | 4.46927 | 5905 ft | 276 kts | 106° |
| 2026-04-15 12:37 | 50.83159 | 4.49882 | 6114 ft | 277 kts | 108° |
| 2026-04-15 12:37 | 50.82607 | 4.52833 | 6453 ft | 282 kts | 110° |
| 2026-04-15 12:37 | 50.82001 | 4.55789 | 7344 ft | 284 kts | 111° |
| 2026-04-15 12:38 | 50.81367 | 4.58777 | 8452 ft | 287 kts | 111° |
| 2026-04-15 12:38 | 50.80731 | 4.61758 | 9419 ft | 292 kts | 111° |
| 2026-04-15 12:38 | 50.80074 | 4.64840 | 10366 ft | 298 kts | 111° |
| 2026-04-15 12:38 | 50.79394 | 4.68034 | 10889 ft | 319 kts | 111° |
| 2026-04-15 12:39 | 50.78664 | 4.71480 | 11244 ft | 342 kts | 110° |
| 2026-04-15 12:39 | 50.77926 | 4.75150 | 11929 ft | 353 kts | 109° |
| 2026-04-15 12:39 | 50.77032 | 4.78780 | 12791 ft | 356 kts | 117° |
| 2026-04-15 12:39 | 50.75978 | 4.82285 | 13640 ft | 362 kts | 117° |
| 2026-04-15 12:40 | 50.74886 | 4.85919 | 14452 ft | 367 kts | 117° |
| 2026-04-15 12:40 | 50.73782 | 4.89581 | 15216 ft | 372 kts | 117° |
| 2026-04-15 12:40 | 50.72665 | 4.93276 | 15989 ft | 376 kts | 117° |
| 2026-04-15 12:40 | 50.71529 | 4.97029 | 16722 ft | 381 kts | 117° |
| 2026-04-15 12:41 | 50.70374 | 5.00836 | 17493 ft | 385 kts | 117° |
| 2026-04-15 12:41 | 50.69207 | 5.04676 | 18222 ft | 390 kts | 117° |
| 2026-04-15 12:41 | 50.68044 | 5.08498 | 18872 ft | 395 kts | 117° |
| 2026-04-15 12:41 | 50.66850 | 5.12421 | 19545 ft | 398 kts | 117° |
| 2026-04-15 12:42 | 50.65643 | 5.16378 | 20189 ft | 401 kts | 117° |
| 2026-04-15 12:42 | 50.64426 | 5.20362 | 20820 ft | 405 kts | 117° |
| 2026-04-15 12:42 | 50.63199 | 5.24369 | 21455 ft | 409 kts | 117° |
| 2026-04-15 12:42 | 50.61952 | 5.28433 | 22060 ft | 413 kts | 117° |
| 2026-04-15 12:43 | 50.60694 | 5.32530 | 22658 ft | 417 kts | 117° |
| 2026-04-15 12:43 | 50.59421 | 5.36669 | 23063 ft | 421 kts | 117° |
| 2026-04-15 12:43 | 50.58138 | 5.40833 | 23179 ft | 422 kts | 117° |
| 2026-04-15 12:43 | 50.56874 | 5.44931 | 23181 ft | 422 kts | 117° |
| 2026-04-15 12:44 | 50.55593 | 5.49074 | 23182 ft | 422 kts | 117° |
| 2026-04-15 12:44 | 50.54305 | 5.53236 | 23183 ft | 422 kts | 117° |
| 2026-04-15 12:44 | 50.53023 | 5.57368 | 23187 ft | 422 kts | 117° |
| 2026-04-15 12:44 | 50.51761 | 5.61529 | 23184 ft | 422 kts | 114° |
| 2026-04-15 12:45 | 50.50791 | 5.65892 | 23186 ft | 423 kts | 107° |
| 2026-04-15 12:45 | 50.49974 | 5.70337 | 23183 ft | 423 kts | 107° |
| 2026-04-15 12:45 | 50.49154 | 5.74774 | 23184 ft | 423 kts | 107° |
| 2026-04-15 12:45 | 50.48328 | 5.79208 | 23184 ft | 423 kts | 107° |
| 2026-04-15 12:46 | 50.47507 | 5.83594 | 23182 ft | 423 kts | 107° |
| 2026-04-15 12:46 | 50.46675 | 5.88019 | 23185 ft | 423 kts | 107° |
| 2026-04-15 12:46 | 50.45842 | 5.92442 | 23185 ft | 423 kts | 107° |
| 2026-04-15 12:46 | 50.45003 | 5.96878 | 23187 ft | 423 kts | 107° |
| 2026-04-15 12:47 | 50.44164 | 6.01310 | 23187 ft | 423 kts | 107° |
| 2026-04-15 12:47 | 50.43325 | 6.05732 | 23188 ft | 423 kts | 107° |
| 2026-04-15 12:47 | 50.42484 | 6.10149 | 23191 ft | 423 kts | 107° |
| 2026-04-15 12:47 | 50.41637 | 6.14588 | 23191 ft | 423 kts | 107° |
| 2026-04-15 12:48 | 50.40793 | 6.19005 | 23188 ft | 424 kts | 107° |
| 2026-04-15 12:48 | 50.39944 | 6.23433 | 23191 ft | 424 kts | 108° |
| 2026-04-15 12:48 | 50.39095 | 6.27855 | 23192 ft | 423 kts | 108° |
| 2026-04-15 12:48 | 50.38244 | 6.32274 | 23190 ft | 424 kts | 108° |
| 2026-04-15 12:49 | 50.37391 | 6.36692 | 23185 ft | 424 kts | 108° |
| 2026-04-15 12:49 | 50.36593 | 6.41143 | 23186 ft | 424 kts | 103° |
| 2026-04-15 12:49 | 50.36140 | 6.45714 | 23187 ft | 425 kts | 95° |
| 2026-04-15 12:49 | 50.35879 | 6.50308 | 23186 ft | 425 kts | 95° |
| 2026-04-15 12:50 | 50.35603 | 6.54886 | 23186 ft | 425 kts | 96° |
| 2026-04-15 12:50 | 50.35312 | 6.59495 | 23191 ft | 425 kts | 96° |
| 2026-04-15 12:50 | 50.35016 | 6.64102 | 23191 ft | 425 kts | 96° |
| 2026-04-15 12:50 | 50.34719 | 6.68704 | 23193 ft | 426 kts | 96° |
| 2026-04-15 12:51 | 50.34421 | 6.73316 | 23195 ft | 425 kts | 96° |
| 2026-04-15 12:51 | 50.34125 | 6.77915 | 23197 ft | 425 kts | 96° |
| 2026-04-15 12:51 | 50.33793 | 6.82516 | 23199 ft | 425 kts | 100° |
| 2026-04-15 12:51 | 50.33129 | 6.87016 | 23202 ft | 424 kts | 108° |
| 2026-04-15 12:52 | 50.32095 | 6.91339 | 23186 ft | 424 kts | 115° |
| 2026-04-15 12:52 | 50.30843 | 6.95511 | 22863 ft | 425 kts | 116° |
| 2026-04-15 12:52 | 50.29584 | 6.99708 | 22373 ft | 424 kts | 116° |
| 2026-04-15 12:52 | 50.28346 | 7.03850 | 21986 ft | 418 kts | 116° |
| 2026-04-15 12:53 | 50.27118 | 7.07966 | 21458 ft | 414 kts | 116° |
| 2026-04-15 12:53 | 50.25920 | 7.11978 | 20906 ft | 410 kts | 116° |
| 2026-04-15 12:53 | 50.24715 | 7.16001 | 20333 ft | 407 kts | 116° |
| 2026-04-15 12:53 | 50.23520 | 7.19986 | 19794 ft | 403 kts | 116° |
| 2026-04-15 12:54 | 50.22334 | 7.23934 | 19243 ft | 399 kts | 116° |
| 2026-04-15 12:54 | 50.21159 | 7.27837 | 18708 ft | 395 kts | 116° |
| 2026-04-15 12:54 | 50.19994 | 7.31704 | 18127 ft | 392 kts | 116° |
| 2026-04-15 12:54 | 50.18973 | 7.35621 | 17553 ft | 388 kts | 111° |
| 2026-04-15 12:55 | 50.18043 | 7.39558 | 16983 ft | 385 kts | 111° |
| 2026-04-15 12:55 | 50.17116 | 7.43467 | 16442 ft | 381 kts | 111° |
| 2026-04-15 12:55 | 50.16200 | 7.47311 | 15941 ft | 377 kts | 111° |
| 2026-04-15 12:55 | 50.15284 | 7.51142 | 15455 ft | 377 kts | 111° |
| 2026-04-15 12:56 | 50.14370 | 7.54956 | 14964 ft | 373 kts | 111° |
| 2026-04-15 12:56 | 50.13478 | 7.58670 | 14495 ft | 369 kts | 112° |
| 2026-04-15 12:56 | 50.12582 | 7.62396 | 14003 ft | 366 kts | 112° |
| 2026-04-15 12:56 | 50.11686 | 7.66117 | 13499 ft | 365 kts | 112° |
| 2026-04-15 12:57 | 50.10851 | 7.69818 | 13267 ft | 361 kts | 108° |
| 2026-04-15 12:57 | 50.10127 | 7.73575 | 13216 ft | 362 kts | 108° |
| 2026-04-15 12:57 | 50.09397 | 7.77342 | 13219 ft | 364 kts | 108° |
| 2026-04-15 12:57 | 50.08663 | 7.81117 | 13223 ft | 363 kts | 108° |
| 2026-04-15 12:58 | 50.07930 | 7.84874 | 13221 ft | 363 kts | 108° |
| 2026-04-15 12:58 | 50.07189 | 7.88641 | 13219 ft | 363 kts | 108° |
| 2026-04-15 12:58 | 50.06438 | 7.92400 | 13227 ft | 363 kts | 108° |
| 2026-04-15 12:58 | 50.05683 | 7.96155 | 13221 ft | 363 kts | 108° |
| 2026-04-15 12:59 | 50.04186 | 8.03587 | 13229 ft | 359 kts | 108° |
| 2026-04-15 12:59 | 50.03441 | 8.07284 | 13233 ft | 358 kts | 108° |
| 2026-04-15 12:59 | 50.02695 | 8.10981 | 13228 ft | 358 kts | 108° |
| 2026-04-15 13:00 | 50.01949 | 8.14667 | 13226 ft | 358 kts | 108° |
| 2026-04-15 13:00 | 50.01222 | 8.18355 | 13229 ft | 358 kts | 105° |
| 2026-04-15 13:00 | 50.00897 | 8.22193 | 13235 ft | 360 kts | 91° |
| 2026-04-15 13:00 | 50.01142 | 8.26052 | 13230 ft | 360 kts | 79° |
| 2026-04-15 13:01 | 50.01600 | 8.29881 | 13232 ft | 360 kts | 80° |
| 2026-04-15 13:01 | 50.02042 | 8.33704 | 13227 ft | 360 kts | 80° |
| 2026-04-15 13:01 | 50.02477 | 8.37544 | 13233 ft | 360 kts | 80° |
| 2026-04-15 13:01 | 50.02901 | 8.41333 | 13227 ft | 360 kts | 80° |
| 2026-04-15 13:02 | 50.03191 | 8.43929 | 13229 ft | 360 kts | 80° |
| 2026-04-15 13:02 | 50.03616 | 8.47752 | 13216 ft | 360 kts | 80° |
| 2026-04-15 13:02 | 50.04181 | 8.52841 | 13206 ft | 360 kts | 81° |
| 2026-04-15 13:02 | 50.04606 | 8.56673 | 13213 ft | 360 kts | 81° |
| 2026-04-15 13:03 | 50.05030 | 8.60518 | 13213 ft | 360 kts | 81° |
| 2026-04-15 13:03 | 50.05540 | 8.64326 | 13204 ft | 360 kts | 74° |
| 2026-04-15 13:03 | 50.06073 | 8.66772 | 13214 ft | 360 kts | 70° |
| 2026-04-15 13:03 | 50.06937 | 8.70434 | 13210 ft | 360 kts | 70° |
| 2026-04-15 13:04 | 50.07790 | 8.74093 | 13205 ft | 360 kts | 70° |
| 2026-04-15 13:04 | 50.08639 | 8.77762 | 13210 ft | 360 kts | 70° |
| 2026-04-15 13:04 | 50.09488 | 8.81440 | 13203 ft | 360 kts | 70° |
| 2026-04-15 13:04 | 50.10334 | 8.85114 | 13208 ft | 360 kts | 70° |
| 2026-04-15 13:05 | 50.11176 | 8.88781 | 13211 ft | 360 kts | 70° |
| 2026-04-15 13:05 | 50.12023 | 8.92472 | 13209 ft | 360 kts | 70° |
| 2026-04-15 13:05 | 50.12873 | 8.96154 | 13215 ft | 360 kts | 70° |
| 2026-04-15 13:05 | 50.13733 | 8.99822 | 13207 ft | 360 kts | 70° |
| 2026-04-15 13:06 | 50.14583 | 9.03442 | 13205 ft | 360 kts | 70° |
| 2026-04-15 13:06 | 50.15175 | 9.07210 | 13214 ft | 359 kts | 87° |
| 2026-04-15 13:06 | 50.14898 | 9.11061 | 13207 ft | 358 kts | 108° |
| 2026-04-15 13:06 | 50.13761 | 9.14490 | 13208 ft | 355 kts | 130° |
| 2026-04-15 13:07 | 50.11926 | 9.17024 | 13199 ft | 353 kts | 151° |
| 2026-04-15 13:07 | 50.09657 | 9.18378 | 13209 ft | 350 kts | 171° |
| 2026-04-15 13:07 | 50.07248 | 9.18373 | 13213 ft | 346 kts | 193° |
| 2026-04-15 13:07 | 50.05029 | 9.16989 | 13201 ft | 344 kts | 214° |
| 2026-04-15 13:08 | 50.03311 | 9.14433 | 13209 ft | 343 kts | 236° |
| 2026-04-15 13:08 | 50.02336 | 9.11095 | 13201 ft | 343 kts | 257° |
| 2026-04-15 13:08 | 50.02235 | 9.07413 | 13208 ft | 343 kts | 279° |
| 2026-04-15 13:08 | 50.02897 | 9.03826 | 13213 ft | 345 kts | 288° |
| 2026-04-15 13:09 | 50.03464 | 9.00211 | 13207 ft | 343 kts | 277° |
| 2026-04-15 13:09 | 50.03504 | 8.96510 | 13198 ft | 343 kts | 264° |
| 2026-04-15 13:09 | 50.03104 | 8.92898 | 13209 ft | 343 kts | 256° |
| 2026-04-15 13:09 | 50.02438 | 8.89340 | 13212 ft | 343 kts | 252° |
| 2026-04-15 13:10 | 50.01650 | 8.85842 | 13208 ft | 342 kts | 250° |
| 2026-04-15 13:10 | 50.00823 | 8.82381 | 13209 ft | 342 kts | 249° |
| 2026-04-15 13:10 | 49.99983 | 8.78904 | 13210 ft | 343 kts | 249° |
| 2026-04-15 13:10 | 49.99148 | 8.75433 | 13208 ft | 342 kts | 250° |
| 2026-04-15 13:11 | 49.98322 | 8.71974 | 13207 ft | 342 kts | 250° |
| 2026-04-15 13:11 | 49.97494 | 8.68508 | 13217 ft | 342 kts | 249° |
| 2026-04-15 13:11 | 49.96659 | 8.65036 | 13205 ft | 342 kts | 249° |
| 2026-04-15 13:11 | 49.95823 | 8.61570 | 13215 ft | 343 kts | 249° |
| 2026-04-15 13:12 | 49.94986 | 8.58099 | 13214 ft | 342 kts | 249° |
| 2026-04-15 13:12 | 49.94160 | 8.54679 | 13209 ft | 343 kts | 249° |
| 2026-04-15 13:12 | 49.93322 | 8.51211 | 13209 ft | 342 kts | 249° |
| 2026-04-15 13:12 | 49.92485 | 8.47751 | 13192 ft | 342 kts | 249° |
| 2026-04-15 13:13 | 49.91658 | 8.44323 | 13139 ft | 335 kts | 249° |
| 2026-04-15 13:13 | 49.90853 | 8.40988 | 13055 ft | 324 kts | 249° |
| 2026-04-15 13:13 | 49.90075 | 8.37773 | 12927 ft | 312 kts | 249° |
| 2026-04-15 13:13 | 49.89327 | 8.34680 | 12821 ft | 299 kts | 249° |
| 2026-04-15 13:14 | 49.88613 | 8.31732 | 12714 ft | 287 kts | 249° |
| 2026-04-15 13:14 | 49.87923 | 8.28896 | 12616 ft | 275 kts | 249° |
| 2026-04-15 13:14 | 49.87261 | 8.26171 | 12508 ft | 264 kts | 249° |
| 2026-04-15 13:14 | 49.86624 | 8.23551 | 12357 ft | 256 kts | 249° |
| 2026-04-15 13:15 | 49.85995 | 8.20973 | 12033 ft | 255 kts | 249° |
| 2026-04-15 13:15 | 49.85377 | 8.18437 | 11721 ft | 254 kts | 249° |
| 2026-04-15 13:15 | 49.84755 | 8.15885 | 11398 ft | 253 kts | 249° |
| 2026-04-15 13:15 | 49.84133 | 8.13334 | 11084 ft | 252 kts | 249° |
| 2026-04-15 13:16 | 49.83512 | 8.10796 | 10751 ft | 251 kts | 249° |
| 2026-04-15 13:16 | 49.82894 | 8.08266 | 10443 ft | 250 kts | 249° |
| 2026-04-15 13:16 | 49.82277 | 8.05760 | 10129 ft | 249 kts | 249° |
| 2026-04-15 13:16 | 49.81664 | 8.03260 | 9779 ft | 248 kts | 249° |
| 2026-04-15 13:17 | 49.81055 | 8.00774 | 9468 ft | 246 kts | 249° |
| 2026-04-15 13:17 | 49.80449 | 7.98302 | 9146 ft | 245 kts | 249° |
| 2026-04-15 13:17 | 49.79872 | 7.95829 | 8847 ft | 244 kts | 256° |
| 2026-04-15 13:17 | 49.79880 | 7.93232 | 8480 ft | 245 kts | 285° |
| 2026-04-15 13:18 | 49.80728 | 7.90996 | 8119 ft | 249 kts | 315° |
| 2026-04-15 13:18 | 49.82232 | 7.89629 | 7787 ft | 250 kts | 338° |
| 2026-04-15 13:18 | 49.83842 | 7.88701 | 7447 ft | 250 kts | 338° |
| 2026-04-15 13:18 | 49.85474 | 7.87781 | 7134 ft | 249 kts | 342° |
| 2026-04-15 13:19 | 49.87189 | 7.87611 | 6822 ft | 250 kts | 12° |
| 2026-04-15 13:19 | 49.88731 | 7.88785 | 6511 ft | 249 kts | 43° |
| 2026-04-15 13:19 | 49.89690 | 7.90960 | 6178 ft | 245 kts | 69° |
| 2026-04-15 13:19 | 49.90264 | 7.93428 | 5973 ft | 239 kts | 74° |
| 2026-04-15 13:20 | 49.90799 | 7.95848 | 5969 ft | 242 kts | 69° |
| 2026-04-15 13:20 | 49.91477 | 7.98267 | 5964 ft | 243 kts | 69° |
| 2026-04-15 13:20 | 49.92116 | 8.00702 | 5965 ft | 243 kts | 71° |
| 2026-04-15 13:20 | 49.92699 | 8.03149 | 5971 ft | 243 kts | 72° |
| 2026-04-15 13:21 | 49.93278 | 8.05615 | 5982 ft | 244 kts | 72° |
| 2026-04-15 13:21 | 49.93857 | 8.08085 | 5976 ft | 243 kts | 71° |
| 2026-04-15 13:21 | 49.94439 | 8.10563 | 5919 ft | 244 kts | 72° |
| 2026-04-15 13:21 | 49.95017 | 8.13019 | 5654 ft | 247 kts | 71° |
| 2026-04-15 13:22 | 49.95610 | 8.15542 | 5290 ft | 251 kts | 71° |
| 2026-04-15 13:22 | 49.96212 | 8.18096 | 4894 ft | 252 kts | 71° |
| 2026-04-15 13:22 | 49.96815 | 8.20657 | 4534 ft | 253 kts | 71° |
| 2026-04-15 13:22 | 49.97424 | 8.23240 | 4161 ft | 257 kts | 71° |
| 2026-04-15 13:23 | 49.98036 | 8.25828 | 3763 ft | 252 kts | 71° |
| 2026-04-15 13:23 | 49.98633 | 8.28349 | 3409 ft | 245 kts | 71° |
| 2026-04-15 13:23 | 49.99214 | 8.30797 | 3063 ft | 239 kts | 71° |
| 2026-04-15 13:23 | 49.99782 | 8.33193 | 2717 ft | 232 kts | 70° |
| 2026-04-15 13:24 | 50.00315 | 8.35445 | 2395 ft | 210 kts | 70° |
| 2026-04-15 13:24 | 50.00801 | 8.37503 | 2123 ft | 198 kts | 71° |
| 2026-04-15 13:24 | 50.01259 | 8.39433 | 1856 ft | 183 kts | 71° |
| 2026-04-15 13:24 | 50.01688 | 8.41223 | 1582 ft | 169 kts | 71° |
| 2026-04-15 13:25 | 50.02072 | 8.42843 | 1331 ft | 152 kts | 71° |
| 2026-04-15 13:25 | 50.02421 | 8.44311 | 1109 ft | 138 kts | 70° |
| 2026-04-15 13:25 | 50.02740 | 8.45654 | 926 ft | 130 kts | 70° |
| 2026-04-15 13:25 | 50.03060 | 8.46997 | 729 ft | 131 kts | 70° |
| 2026-04-15 13:26 | 50.03374 | 8.48319 | 580 ft | 130 kts | 70° |
| 2026-04-15 13:26 | 50.03685 | 8.49642 | 407 ft | 130 kts | 70° |
| 2026-04-15 13:26 | 50.03989 | 8.50916 | 351 ft | 107 kts | 69° |
| 2026-04-15 13:26 | 50.04111 | 8.51600 | 354 ft | 51 kts | 95° |
| 2026-04-15 13:27 | 50.04083 | 8.51908 | 353 ft | 20 kts | 98° |
| 2026-04-15 13:27 | 50.04076 | 8.51984 | 360 ft | 0 kts | 97° |
| 2026-04-15 13:27 | 50.04072 | 8.52060 | 349 ft | 12 kts | 88° |
| 2026-04-15 13:28 | 50.04091 | 8.52213 | 347 ft | 16 kts | 71° |
| 2026-04-15 13:28 | 50.04140 | 8.52390 | 353 ft | 19 kts | 65° |
| 2026-04-15 13:28 | 50.04188 | 8.52596 | 353 ft | 21 kts | 71° |
| 2026-04-15 13:28 | 50.04240 | 8.52827 | 345 ft | 24 kts | 71° |
| 2026-04-15 13:29 | 50.04298 | 8.53077 | 355 ft | 26 kts | 69° |
| 2026-04-15 13:29 | 50.04363 | 8.53343 | 349 ft | 27 kts | 70° |
| 2026-04-15 13:29 | 50.04407 | 8.53636 | 348 ft | 29 kts | 83° |
| 2026-04-15 13:29 | 50.04427 | 8.53951 | 345 ft | 29 kts | 85° |
| 2026-04-15 13:30 | 50.04441 | 8.54263 | 348 ft | 28 kts | 85° |
| 2026-04-15 13:30 | 50.04445 | 8.54520 | 348 ft | 25 kts | 102° |
| 2026-04-15 13:30 | 50.04354 | 8.54734 | 351 ft | 25 kts | 143° |
| 2026-04-15 13:30 | 50.04196 | 8.54852 | 349 ft | 26 kts | 159° |
| 2026-04-15 13:31 | 50.04029 | 8.54942 | 346 ft | 22 kts | 160° |
| 2026-04-15 13:31 | 50.03894 | 8.55025 | 348 ft | 19 kts | 151° |
| 2026-04-15 13:31 | 50.03870 | 8.55193 | 354 ft | 18 kts | 73° |
| 2026-04-15 13:31 | 50.03914 | 8.55380 | 351 ft | 17 kts | 69° |
| 2026-04-15 13:32 | 50.03951 | 8.55529 | 346 ft | 0 kts | 68° |
| 2026-04-15 13:32 | 50.03952 | 8.55531 | 346 ft | 1 kts | 66° |
| 2026-04-15 13:32 | 50.03979 | 8.55539 | 350 ft | 6 kts | 336° |
| 2026-04-15 13:32 | 50.04017 | 8.55470 | 351 ft | 11 kts | 309° |
| 2026-04-15 13:33 | 50.04086 | 8.55424 | 353 ft | 13 kts | 21° |
| 2026-04-15 13:33 | 50.04146 | 8.55539 | 353 ft | 15 kts | 67° |
| 2026-04-15 13:33 | 50.04188 | 8.55707 | 349 ft | 18 kts | 69° |
| 2026-04-15 13:33 | 50.04213 | 8.55807 | 353 ft | 0 kts | 69° |
| 2026-04-15 13:35 | 50.04222 | 8.55853 | 347 ft | 13 kts | 74° |
| 2026-04-15 13:35 | 50.04251 | 8.56001 | 350 ft | 16 kts | 68° |
| 2026-04-15 13:35 | 50.04296 | 8.56172 | 346 ft | 19 kts | 70° |
| 2026-04-15 13:35 | 50.04342 | 8.56376 | 353 ft | 21 kts | 69° |
| 2026-04-15 13:36 | 50.04376 | 8.56518 | 350 ft | 10 kts | 70° |
| 2026-04-15 13:36 | 50.04397 | 8.56611 | 349 ft | 9 kts | 71° |
| 2026-04-15 13:36 | 50.04422 | 8.56716 | 345 ft | 12 kts | 68° |
| 2026-04-15 13:36 | 50.04452 | 8.56821 | 353 ft | 11 kts | 60° |
| 2026-04-15 13:37 | 50.04522 | 8.56879 | 345 ft | 13 kts | 13° |
| 2026-04-15 13:37 | 50.04624 | 8.56912 | 348 ft | 16 kts | 13° |
| 2026-04-15 13:37 | 50.04672 | 8.56934 | 345 ft | 4 kts | 21° |
| 2026-04-15 13:37 | 50.04709 | 8.56965 | 350 ft | 7 kts | 39° |
| 2026-04-15 13:38 | 50.04709 | 8.57054 | 347 ft | 10 kts | 108° |
| 2026-04-15 13:38 | 50.04698 | 8.57092 | 352 ft | 1 kts | 116° |